Time;durP1;ratioP1;P1;durP2;ratioP2;P2;SDS_P1;SDS_P2;PMS_P1;PMS_P2;Temp;Humidity;BMP_temperature;BMP_pressure;BME280_temperature;BME280_humidity;BME280_pressure;Samples;Min_cycle;Max_cycle;Signal;HPM_P1;HPM_P2
2021/01/14 00:00:51;;;;;;;13.13;6.68;;;0.30;91.00;;;;;;5128725;27;19907;-66
2021/01/14 00:03:17;;;;;;;;;;;0.30;91.00;;;;;;5128944;27;20030;-65
2021/01/14 00:05:43;;;;;;;16.17;8.07;;;0.20;91.00;;;;;;5128200;27;19930;-66
2021/01/14 00:08:11;;;;;;;;;;;0.10;91.10;;;;;;5129246;27;20102;-66
2021/01/14 00:10:37;;;;;;;14.45;7.82;;;0.10;91.20;;;;;;5128810;27;19913;-66
2021/01/14 00:13:04;;;;;;;;;;;0.00;91.30;;;;;;5129166;27;20106;-65
2021/01/14 00:15:29;;;;;;;14.27;7.55;;;0.00;91.40;;;;;;5110183;27;19911;-65
2021/01/14 00:17:55;;;;;;;;;;;0.00;91.50;;;;;;5128481;27;20035;-66
2021/01/14 00:20:21;;;;;;;20.58;7.30;;;0.00;91.60;;;;;;5128634;27;19903;-65
2021/01/14 00:22:46;;;;;;;;;;;0.00;91.70;;;;;;5110913;27;20054;-66
2021/01/14 00:25:14;;;;;;;13.25;6.90;;;-0.10;91.70;;;;;;5128153;27;20375;-65
2021/01/14 00:27:40;;;;;;;14.88;7.35;;;-0.10;91.70;;;;;;5128418;27;20415;-66
2021/01/14 00:30:17;;;;;;;;;;;-0.10;91.80;;;;;;5128890;27;20020;-66
2021/01/14 00:32:43;;;;;;;15.63;6.90;;;-0.10;91.80;;;;;;5128157;27;20322;-66
2021/01/14 00:35:08;;;;;;;;;;;-0.10;92.10;;;;;;5128925;27;20035;-66
2021/01/14 00:37:56;;;;;;;19.40;7.13;;;-0.10;91.80;;;;;;5109127;27;19908;-66
2021/01/14 00:40:25;;;;;;;16.92;6.75;;;-0.10;91.80;;;;;;5127869;27;20023;-66
2021/01/14 00:42:57;;;;;;;11.88;6.78;;;-0.10;91.80;;;;;;5127976;27;20054;-66
2021/01/14 00:45:23;;;;;;;15.48;7.45;;;-0.10;91.80;;;;;;5127954;27;20023;-65
2021/01/14 00:47:49;;;;;;;17.70;8.75;;;-0.10;91.80;;;;;;5127561;27;20042;-65
2021/01/14 00:50:14;;;;;;;;;;;0.00;91.80;;;;;;5128536;27;20027;-64
2021/01/14 00:52:40;;;;;;;17.88;8.85;;;0.00;91.80;;;;;;5127890;27;20409;-66
2021/01/14 00:55:07;;;;;;;;;;;0.00;91.80;;;;;;5128066;27;20051;-65
2021/01/14 00:57:35;;;;;;;19.80;7.13;;;0.00;91.70;;;;;;5127725;27;20366;-65
2021/01/14 01:00:03;;;;;;;11.82;6.90;;;0.00;91.70;;;;;;5109239;27;20029;-65
2021/01/14 01:02:28;;;;;;;14.02;6.97;;;0.00;91.70;;;;;;5127553;27;20030;-65
2021/01/14 01:04:54;;;;;;;;;;;0.10;91.70;;;;;;5128336;27;20023;-66
2021/01/14 01:07:19;;;;;;;12.45;6.88;;;0.00;91.60;;;;;;5127301;27;19915;-66
2021/01/14 01:09:45;;;;;;;;;;;0.10;91.60;;;;;;5127725;27;20057;-66
2021/01/14 01:12:11;;;;;;;14.73;6.55;;;0.10;91.50;;;;;;5127701;27;19907;-66
2021/01/14 01:14:36;;;;;;;;;;;0.10;91.50;;;;;;5128167;27;20023;-66
2021/01/14 01:17:02;;;;;;;12.00;7.43;;;0.10;91.50;;;;;;5127357;27;19907;-65
2021/01/14 01:19:27;;;;;;;;;;;0.00;91.50;;;;;;5127459;27;20027;-66
2021/01/14 01:21:53;;;;;;;17.23;7.35;;;0.10;91.50;;;;;;5127661;27;19903;-66
2021/01/14 01:24:19;;;;;;;;;;;0.10;91.40;;;;;;5127832;27;20055;-65
2021/01/14 01:26:50;;;;;;;15.88;7.43;;;0.10;91.40;;;;;;5127307;27;19959;-65
2021/01/14 01:29:16;;;;;;;15.73;7.47;;;0.10;91.40;;;;;;5127340;27;20022;-66
2021/01/14 01:31:42;;;;;;;;;;;0.10;91.30;;;;;;5127040;27;20481;-66
2021/01/14 01:34:07;;;;;;;16.05;7.00;;;0.10;91.30;;;;;;5127278;27;20016;-66
2021/01/14 01:36:33;;;;;;;;;;;0.10;91.30;;;;;;5127858;27;20023;-66
2021/01/14 01:38:59;;;;;;;11.75;6.70;;;0.10;91.30;;;;;;5108848;27;20334;-66
2021/01/14 01:41:24;;;;;;;;;;;0.10;91.20;;;;;;5127515;27;20131;-66
2021/01/14 01:43:50;;;;;;;14.38;6.15;;;0.10;91.20;;;;;;5126772;27;20018;-67
2021/01/14 01:46:22;;;;;;;;;;;0.10;91.20;;;;;;5127692;27;20062;-65
2021/01/14 01:48:48;;;;;;;15.20;7.28;;;0.10;91.20;;;;;;5125974;27;20002;-66
2021/01/14 01:51:13;;;;;;;;;;;0.10;91.20;;;;;;5109051;28;20165;-66
2021/01/14 01:53:39;;;;;;;12.85;6.68;;;0.10;91.10;;;;;;5126948;28;19976;-68
2021/01/14 01:56:04;;;;;;;;;;;0.10;91.20;;;;;;5127313;28;20030;-66
2021/01/14 01:58:33;;;;;;;16.17;7.10;;;0.10;91.10;;;;;;5127221;28;19914;-66
2021/01/14 02:00:58;;;;;;;11.32;6.25;;;0.10;91.10;;;;;;5127126;28;20027;-66
2021/01/14 02:03:24;;;;;;;;;;;0.10;91.10;;;;;;5126830;27;20026;-66
2021/01/14 02:05:49;;;;;;;12.57;6.43;;;0.10;91.00;;;;;;5126839;27;19907;-67
2021/01/14 02:08:15;;;;;;;;;;;0.10;91.00;;;;;;5127476;28;20490;-66
2021/01/14 02:10:51;;;;;;;18.73;6.13;;;0.10;91.20;;;;;;5126903;28;19903;-66
2021/01/14 02:13:35;;;;;;;16.70;7.53;;;0.10;90.90;;;;;;5126561;27;20034;-66
2021/01/14 02:16:02;;;;;;;15.38;6.97;;;0.10;90.80;;;;;;5126483;28;20032;-66
2021/01/14 02:18:29;;;;;;;17.75;7.57;;;0.10;90.80;;;;;;5126254;28;20019;-65
2021/01/14 02:20:59;;;;;;;11.43;6.72;;;0.10;90.70;;;;;;5126614;28;20084;-66
2021/01/14 02:23:46;;;;;;;17.05;7.13;;;0.10;90.70;;;;;;5126830;28;20034;-66
2021/01/14 02:26:16;;;;;;;12.90;6.38;;;0.10;90.70;;;;;;5126653;28;20140;-66
2021/01/14 02:28:44;;;;;;;19.02;7.75;;;0.10;90.70;;;;;;5126442;28;20038;-66
2021/01/14 02:31:10;;;;;;;14.77;7.80;;;0.10;90.70;;;;;;5126438;27;20031;-66
2021/01/14 02:33:36;;;;;;;15.15;6.70;;;0.10;90.60;;;;;;5125900;28;20515;-67
2021/01/14 02:36:03;;;;;;;;;;;0.10;90.70;;;;;;5127250;28;20023;-66
2021/01/14 02:38:28;;;;;;;15.93;7.53;;;0.10;90.60;;;;;;5126629;28;19908;-67
2021/01/14 02:40:54;;;;;;;;;;;0.00;90.70;;;;;;5126997;28;20031;-66
2021/01/14 02:43:19;;;;;;;12.63;6.22;;;0.10;90.80;;;;;;5126722;28;19907;-67
2021/01/14 02:45:45;;;;;;;;;;;0.00;90.80;;;;;;5108348;28;20024;-67
2021/01/14 02:48:15;;;;;;;12.75;7.28;;;0.10;90.80;;;;;;5126261;28;19997;-67
2021/01/14 02:50:42;;;;;;;18.63;8.68;;;0.10;90.80;;;;;;5126220;28;20031;-66
2021/01/14 02:53:09;;;;;;;19.35;8.65;;;0.00;90.70;;;;;;5126223;28;20380;-66
2021/01/14 02:55:36;;;;;;;15.63;8.13;;;0.10;90.80;;;;;;5126541;28;20045;-67
2021/01/14 02:58:02;;;;;;;15.57;8.43;;;0.10;90.80;;;;;;5125694;28;20030;-65
2021/01/14 03:00:27;;;;;;;;;;;0.00;90.80;;;;;;5108546;28;20027;-65
2021/01/14 03:02:53;;;;;;;17.98;10.18;;;0.10;90.80;;;;;;5128654;27;19907;-66
2021/01/14 03:05:18;;;;;;;;;;;0.10;90.60;;;;;;5112068;27;20110;-65
2021/01/14 03:07:44;;;;;;;28.60;12.65;;;0.10;90.80;;;;;;5129936;27;19921;-66
2021/01/14 03:10:09;;;;;;;;;;;0.00;90.40;;;;;;5130837;27;20436;-67
2021/01/14 03:12:36;;;;;;;22.20;10.63;;;0.10;90.40;;;;;;5129919;27;19929;-67
2021/01/14 03:15:05;;;;;;;17.02;8.95;;;0.00;90.40;;;;;;5129960;27;20043;-66
2021/01/14 03:17:37;;;;;;;16.30;8.13;;;0.00;90.30;;;;;;5111355;27;20050;-65
2021/01/14 03:20:07;;;;;;;17.10;8.70;;;0.00;90.20;;;;;;5130109;27;20030;-66
2021/01/14 03:22:40;;;;;;;15.13;5.60;;;0.00;90.00;;;;;;5129727;27;20038;-65
2021/01/14 03:25:11;;;;;;;16.20;7.13;;;0.10;88.90;;;;;;5099596;28;20416;-66
2021/01/14 03:27:42;;;;;;;10.60;5.00;;;0.10;88.30;;;;;;5090915;28;20038;-65
2021/01/14 03:30:09;;;;;;;9.75;5.43;;;0.10;87.60;;;;;;5090438;28;20020;-66
2021/01/14 03:32:35;;;;;;;20.05;5.93;;;0.10;87.40;;;;;;5108576;28;20028;-65
2021/01/14 03:35:00;;;;;;;;;;;0.20;87.20;;;;;;5109926;28;20361;-65
2021/01/14 03:37:26;;;;;;;15.55;5.60;;;0.20;86.90;;;;;;5108627;28;19907;-65
2021/01/14 03:39:52;;;;;;;;;;;0.20;86.70;;;;;;5109472;28;20513;-65
2021/01/14 03:42:21;;;;;;;10.57;5.28;;;0.20;86.40;;;;;;5108520;28;19943;-66
2021/01/14 03:44:48;;;;;;;10.85;5.57;;;0.30;86.40;;;;;;5108560;28;20492;-65
2021/01/14 03:47:14;;;;;;;9.82;5.47;;;0.30;86.40;;;;;;5107043;28;20051;-65
2021/01/14 03:49:40;;;;;;;;;;;0.30;86.30;;;;;;5109058;28;20031;-66
2021/01/14 03:52:09;;;;;;;12.15;5.47;;;0.30;86.20;;;;;;5108396;28;19907;-66
2021/01/14 03:54:34;;;;;;;11.27;5.35;;;0.20;86.00;;;;;;5108751;28;20043;-66
2021/01/14 03:57:00;;;;;;;;;;;0.30;86.10;;;;;;5090649;28;20820;-65
2021/01/14 03:59:25;;;;;;;6.57;3.60;;;0.20;86.00;;;;;;5107960;28;20006;-65
2021/01/14 04:01:51;;;;;;;;;;;0.20;86.00;;;;;;5108725;28;20035;-66
2021/01/14 04:04:16;;;;;;;8.63;3.95;;;0.20;85.50;;;;;;5108488;28;19911;-66
2021/01/14 04:06:42;;;;;;;;;;;0.20;85.50;;;;;;5108609;28;20091;-67
2021/01/14 04:09:08;;;;;;;8.38;3.47;;;0.20;85.70;;;;;;5108193;28;19973;-66
2021/01/14 04:11:33;;;;;;;;;;;0.10;85.60;;;;;;5108587;28;20042;-66
2021/01/14 04:14:00;;;;;;;6.53;3.13;;;0.10;85.70;;;;;;5107512;28;19907;-66
2021/01/14 04:16:26;;;;;;;8.70;3.97;;;0.10;86.00;;;;;;5107033;28;20054;-66
2021/01/14 04:18:52;;;;;;;7.95;3.83;;;0.10;86.10;;;;;;5107096;28;20027;-65
2021/01/14 04:21:17;;;;;;;;;;;0.00;86.10;;;;;;5089102;28;20088;-66
2021/01/14 04:23:44;;;;;;;8.07;4.03;;;0.10;86.20;;;;;;5107225;28;20387;-65
2021/01/14 04:26:10;;;;;;;16.92;4.32;;;0.10;86.30;;;;;;5107338;28;20046;-66
2021/01/14 04:28:40;;;;;;;8.15;4.40;;;0.00;86.50;;;;;;5107989;28;20504;-66
2021/01/14 04:31:06;;;;;;;7.97;4.18;;;0.00;86.70;;;;;;5107422;28;20069;-66
2021/01/14 04:33:32;;;;;;;7.38;4.18;;;-0.10;86.80;;;;;;5107749;28;20035;-66
2021/01/14 04:36:00;;;;;;;12.77;5.18;;;-0.10;87.00;;;;;;5107229;28;20028;-66
2021/01/14 04:38:27;;;;;;;12.25;5.00;;;-0.10;87.30;;;;;;5088661;28;20059;-65
2021/01/14 04:41:04;;;;;;;10.02;4.68;;;-0.10;87.50;;;;;;5107418;28;20555;-65
2021/01/14 04:43:32;;;;;;;8.02;4.63;;;-0.10;87.80;;;;;;5106975;28;20043;-66
2021/01/14 04:46:06;;;;;;;10.82;4.53;;;-0.20;87.90;;;;;;5088490;28;20028;-66
2021/01/14 04:48:46;;;;;;;8.02;4.28;;;-0.20;88.10;;;;;;5107128;28;20034;-66
2021/01/14 04:51:14;;;;;;;6.68;3.95;;;-0.20;88.40;;;;;;5089077;28;20093;-66
2021/01/14 04:53:47;;;;;;;8.90;4.05;;;-0.30;88.70;;;;;;5107258;28;20039;-66
2021/01/14 04:56:17;;;;;;;9.65;4.75;;;-0.30;88.90;;;;;;5107521;28;20543;-66
2021/01/14 04:58:46;;;;;;;10.10;4.68;;;-0.30;89.80;;;;;;5107528;28;20028;-66
2021/01/14 05:01:19;;;;;;;8.35;4.32;;;-0.30;89.60;;;;;;5088452;28;20448;-65
2021/01/14 05:03:49;;;;;;;7.38;4.07;;;-0.40;89.90;;;;;;5107476;28;20027;-66
2021/01/14 05:06:19;;;;;;;11.10;3.67;;;-0.40;90.10;;;;;;5107099;28;20028;-66
2021/01/14 05:08:47;;;;;;;10.38;5.78;;;-0.40;90.20;;;;;;5089228;28;20487;-66
2021/01/14 05:11:17;;;;;;;8.77;4.30;;;-0.50;90.20;;;;;;5107081;28;20027;-65
2021/01/14 05:13:46;;;;;;;10.70;4.43;;;-0.50;90.30;;;;;;5107017;28;20090;-66
2021/01/14 05:16:13;;;;;;;8.18;4.15;;;-0.50;90.40;;;;;;5106770;28;20024;-66
2021/01/14 05:18:42;;;;;;;9.07;4.10;;;-0.50;90.50;;;;;;5106853;28;20046;-66
2021/01/14 05:21:08;;;;;;;13.30;4.13;;;-0.60;90.60;;;;;;5107095;28;20499;-66
2021/01/14 05:23:35;;;;;;;;;;;-0.60;90.60;;;;;;5106492;28;20039;-65
2021/01/14 05:26:01;;;;;;;10.80;4.60;;;-0.60;90.80;;;;;;5106094;28;19959;-66
2021/01/14 05:28:31;;;;;;;12.40;4.95;;;-0.60;90.80;;;;;;5106894;28;20023;-66
2021/01/14 05:31:16;;;;;;;7.93;4.15;;;-0.60;90.90;;;;;;5106377;28;20503;-66
2021/01/14 05:33:43;;;;;;;11.25;4.00;;;-0.60;91.00;;;;;;5106243;28;20050;-66
2021/01/14 05:36:09;;;;;;;7.53;3.47;;;-0.70;91.00;;;;;;5107006;28;20089;-66
2021/01/14 05:38:35;;;;;;;8.07;3.90;;;-0.70;91.00;;;;;;5087892;28;20445;-66
2021/01/14 05:41:18;;;;;;;;;;;-0.70;91.00;;;;;;5107288;28;20036;-68
2021/01/14 05:43:59;;;;;;;6.78;4.03;;;-0.70;91.10;;;;;;5106093;28;20297;-65
2021/01/14 05:46:31;;;;;;;7.55;4.13;;;-0.70;91.10;;;;;;5106334;28;20481;-66
2021/01/14 05:48:58;;;;;;;10.40;4.32;;;-0.70;91.20;;;;;;5106818;28;20055;-65
2021/01/14 05:51:32;;;;;;;6.45;3.10;;;-0.70;91.20;;;;;;5106547;28;20403;-66
2021/01/14 05:54:13;;;;;;;10.63;5.68;;;-0.70;91.20;;;;;;5106202;28;20085;-68
2021/01/14 05:56:43;;;;;;;16.35;8.60;;;-0.80;91.50;;;;;;5106659;28;20059;-66
2021/01/14 05:59:16;;;;;;;13.32;6.45;;;-0.80;91.30;;;;;;5106069;28;20062;-65
2021/01/14 06:01:55;;;;;;;14.48;6.85;;;-0.80;91.30;;;;;;5106604;28;20050;-65
2021/01/14 06:04:26;;;;;;;17.45;8.45;;;-0.80;91.30;;;;;;5088148;28;20082;-65
2021/01/14 06:06:54;;;;;;;61.40;35.13;;;-0.80;91.30;;;;;;5088378;28;20500;-65
2021/01/14 06:09:21;;;;;;;54.22;30.75;;;-0.80;91.30;;;;;;5106225;28;20804;-65
2021/01/14 06:11:49;;;;;;;42.92;23.30;;;-0.80;91.30;;;;;;5106236;28;20031;-66
2021/01/14 06:14:29;;;;;;;41.63;22.00;;;-0.80;91.40;;;;;;5105973;28;20019;-64
2021/01/14 06:17:00;;;;;;;26.10;13.65;;;-0.80;91.40;;;;;;5106421;28;20027;-66
2021/01/14 06:19:28;;;;;;;17.48;8.70;;;-0.70;91.50;;;;;;5105725;28;20039;-66
2021/01/14 06:21:57;;;;;;;13.45;7.57;;;-0.70;91.50;;;;;;5106270;28;20016;-66
2021/01/14 06:24:39;;;;;;;12.35;5.80;;;-0.70;91.50;;;;;;5111466;28;20043;-66
2021/01/14 06:27:05;;;;;;;12.55;5.50;;;-0.60;91.60;;;;;;5126999;28;20046;-66
2021/01/14 06:29:31;;;;;;;;;;;-0.60;91.60;;;;;;5126701;28;20027;-66
2021/01/14 06:32:12;;;;;;;10.02;5.13;;;-0.50;91.60;;;;;;5126965;28;19907;-66
2021/01/14 06:34:40;;;;;;;13.98;6.47;;;-0.50;91.60;;;;;;5126732;28;20380;-65
2021/01/14 06:37:14;;;;;;;11.25;5.05;;;-0.50;91.60;;;;;;5130108;27;20027;-66
2021/01/14 06:39:43;;;;;;;9.45;4.70;;;-0.40;91.60;;;;;;5130598;27;20024;-67
2021/01/14 06:42:26;;;;;;;11.55;5.28;;;-0.40;91.60;;;;;;5130297;27;20062;-67
2021/01/14 06:45:05;;;;;;;12.23;5.93;;;-0.30;91.60;;;;;;5129909;27;20027;-67
2021/01/14 06:47:47;;;;;;;9.85;4.65;;;-0.30;91.60;;;;;;5130385;27;20526;-67
2021/01/14 06:50:21;;;;;;;9.15;4.82;;;-0.20;91.60;;;;;;5130445;27;20019;-67
2021/01/14 06:52:50;;;;;;;7.78;4.70;;;-0.20;91.60;;;;;;5130325;27;20031;-67
2021/01/14 06:55:18;;;;;;;9.70;5.10;;;-0.20;91.60;;;;;;5130478;27;20066;-66
2021/01/14 06:58:15;;;;;;;10.57;6.43;;;-0.20;91.60;;;;;;5130094;27;20046;-67
2021/01/14 07:00:48;;;;;;;9.18;5.00;;;-0.10;91.70;;;;;;5111356;27;20026;-65
2021/01/14 07:03:18;;;;;;;12.13;6.05;;;-0.10;91.80;;;;;;5111956;27;20042;-67
2021/01/14 07:05:55;;;;;;;16.20;6.88;;;0.00;91.90;;;;;;5129983;27;20026;-67
2021/01/14 07:08:37;;;;;;;9.18;5.93;;;0.00;92.00;;;;;;5129902;27;20027;-67
2021/01/14 07:11:16;;;;;;;14.35;8.45;;;0.00;92.00;;;;;;5129908;27;20083;-66
2021/01/14 07:13:50;;;;;;;16.77;9.93;;;0.10;91.90;;;;;;5129351;27;20062;-67
2021/01/14 07:16:16;;;;;;;13.18;7.38;;;0.10;92.10;;;;;;5130131;27;20062;-67
2021/01/14 07:18:44;;;;;;;12.25;7.25;;;0.10;92.00;;;;;;5129763;27;20076;-67
2021/01/14 07:21:37;;;;;;;11.50;7.15;;;0.10;91.90;;;;;;5111412;27;20035;-66
2021/01/14 07:24:19;;;;;;;9.70;5.65;;;0.20;91.90;;;;;;5129646;27;20122;-67
2021/01/14 07:26:51;;;;;;;14.13;8.43;;;0.20;91.90;;;;;;5129377;27;20067;-66
2021/01/14 07:29:17;;;;;;;10.95;7.18;;;0.20;91.90;;;;;;5110907;27;20027;-66
2021/01/14 07:31:50;;;;;;;;;;;0.30;91.90;;;;;;5129674;27;20023;-66
2021/01/14 07:34:38;;;;;;;13.40;7.53;;;0.30;92.00;;;;;;5129225;27;19903;-67
2021/01/14 07:37:05;;;;;;;12.50;7.35;;;0.30;92.10;;;;;;5129362;27;20476;-66
2021/01/14 07:39:46;;;;;;;11.80;7.55;;;0.40;92.10;;;;;;5129314;27;20035;-67
2021/01/14 07:42:22;;;;;;;11.98;7.32;;;0.40;92.10;;;;;;5128939;27;20047;-66
2021/01/14 07:44:49;;;;;;;16.50;8.93;;;0.40;92.10;;;;;;5128717;27;20035;-67
2021/01/14 07:47:32;;;;;;;14.65;8.57;;;0.50;92.10;;;;;;5128345;27;20035;-67
2021/01/14 07:49:59;;;;;;;11.85;8.23;;;0.50;92.10;;;;;;5128799;27;20498;-66
2021/01/14 07:52:35;;;;;;;15.77;8.50;;;0.50;92.00;;;;;;5110956;27;20051;-66
2021/01/14 07:55:05;;;;;;;14.10;8.80;;;0.60;92.00;;;;;;5129377;27;20348;-66
2021/01/14 07:57:42;;;;;;;14.38;8.30;;;0.60;92.00;;;;;;5129083;27;20471;-68
2021/01/14 08:00:19;;;;;;;11.18;7.57;;;0.60;92.00;;;;;;5129096;27;20037;-67
2021/01/14 08:03:04;;;;;;;11.73;7.70;;;0.70;91.90;;;;;;5128427;27;20027;-68
2021/01/14 08:05:42;;;;;;;10.02;6.30;;;0.70;91.90;;;;;;5128664;27;20477;-66
2021/01/14 08:08:27;;;;;;;14.90;8.20;;;0.70;91.80;;;;;;5128978;27;20043;-67
2021/01/14 08:11:15;;;;;;;14.15;8.15;;;0.70;91.70;;;;;;5128926;27;20034;-67
2021/01/14 08:14:01;;;;;;;10.00;6.78;;;0.80;91.70;;;;;;5127984;27;20042;-66
2021/01/14 08:16:30;;;;;;;17.70;7.88;;;0.80;91.60;;;;;;5128912;27;20023;-66
2021/01/14 08:19:34;;;;;;;15.65;9.35;;;0.80;91.50;;;;;;5128761;27;20028;-66
2021/01/14 08:22:05;;;;;;;14.25;8.68;;;0.80;91.40;;;;;;5128743;27;20023;-66
2021/01/14 08:24:53;;;;;;;14.80;8.38;;;0.80;91.40;;;;;;5128580;27;20096;-66
2021/01/14 08:27:24;;;;;;;19.08;9.27;;;0.80;91.40;;;;;;5128440;27;20118;-66
2021/01/14 08:30:00;;;;;;;16.75;10.23;;;0.80;91.70;;;;;;5128462;27;20052;-66
2021/01/14 08:32:36;;;;;;;16.48;9.88;;;0.80;91.50;;;;;;5109968;27;20399;-66
2021/01/14 08:35:23;;;;;;;16.05;9.82;;;0.80;91.50;;;;;;5128167;27;20023;-66
2021/01/14 08:37:57;;;;;;;19.08;9.73;;;0.80;91.60;;;;;;5096284;27;20031;-66
2021/01/14 08:40:22;;;;;;;13.88;8.77;;;0.90;91.50;;;;;;5109793;27;20031;-65
2021/01/14 08:42:59;;;;;;;;;;;0.90;91.50;;;;;;5109659;27;20075;-66
2021/01/14 08:45:29;;;;;;;14.02;7.93;;;1.00;91.40;;;;;;5109927;27;20026;-66
2021/01/14 08:48:06;;;;;;;9.88;7.00;;;1.10;91.20;;;;;;5109488;27;20074;-64
2021/01/14 08:50:37;;;;;;;9.85;5.85;;;1.20;91.20;;;;;;5128168;27;20023;-67
2021/01/14 08:53:07;;;;;;;8.05;5.00;;;1.40;90.90;;;;;;5127659;27;20023;-65
2021/01/14 08:55:33;;;;;;;7.32;4.32;;;1.50;90.30;;;;;;5127985;27;20026;-66
2021/01/14 08:58:00;;;;;;;;;;;1.60;89.80;;;;;;5127680;27;20027;-66
2021/01/14 09:00:26;;;;;;;7.30;3.40;;;1.60;88.60;;;;;;5127987;27;19910;-66
2021/01/14 09:02:52;;;;;;;6.70;3.50;;;1.80;88.20;;;;;;5127579;27;20031;-66
2021/01/14 09:05:17;;;;;;;;;;;1.80;87.60;;;;;;5128087;27;20106;-66
2021/01/14 09:08:07;;;;;;;9.32;3.45;;;1.90;86.90;;;;;;5127213;27;19968;-65
2021/01/14 09:10:54;;;;;;;3.47;2.40;;;2.10;85.90;;;;;;5127780;27;20057;-66
2021/01/14 09:13:20;;;;;;;;;;;2.30;84.40;;;;;;5127741;27;20068;-69
2021/01/14 09:15:47;;;;;;;6.33;3.10;;;2.30;83.20;;;;;;5127238;27;19955;-65
2021/01/14 09:18:14;;;;;;;7.13;4.15;;;2.40;82.60;;;;;;5127335;27;20034;-66
2021/01/14 09:20:41;;;;;;;3.95;2.20;;;2.50;80.40;;;;;;5109584;27;20027;-66
2021/01/14 09:23:17;;;;;;;;;;;2.60;79.30;;;;;;5109571;27;20398;-66
2021/01/14 09:25:47;;;;;;;5.47;2.20;;;2.70;79.60;;;;;;5126910;27;19923;-65
2021/01/14 09:28:13;;;;;;;5.22;2.22;;;2.70;78.00;;;;;;5126984;27;20199;-66
2021/01/14 09:30:40;;;;;;;6.60;2.70;;;2.80;77.10;;;;;;5127179;27;20051;-66
2021/01/14 09:33:06;;;;;;;;;;;2.80;76.90;;;;;;5127409;27;20023;-67
2021/01/14 09:35:32;;;;;;;5.28;2.22;;;2.90;76.80;;;;;;5127111;27;19914;-66
2021/01/14 09:37:57;;;;;;;3.85;1.88;;;3.10;75.20;;;;;;5108816;27;20480;-67
2021/01/14 09:40:23;;;;;;;;;;;3.20;73.30;;;;;;5127544;27;20072;-65
2021/01/14 09:42:50;;;;;;;6.25;2.95;;;3.10;74.00;;;;;;5126876;27;19907;-66
2021/01/14 09:45:17;;;;;;;4.95;2.00;;;3.10;74.00;;;;;;5127273;27;20479;-66
2021/01/14 09:47:49;;;;;;;3.05;1.77;;;3.30;73.90;;;;;;5126814;27;20060;-66
2021/01/14 09:50:15;;;;;;;5.28;1.65;;;3.50;71.70;;;;;;5108671;28;20027;-66
2021/01/14 09:52:42;;;;;;;5.35;3.03;;;3.50;71.90;;;;;;5127230;28;20041;-66
2021/01/14 09:55:14;;;;;;;4.57;2.00;;;3.60;71.10;;;;;;5127284;28;20092;-66
2021/01/14 09:57:48;;;;;;;6.18;2.75;;;3.70;70.50;;;;;;5108736;28;20095;-66
2021/01/14 10:00:20;;;;;;;7.63;4.88;;;3.70;70.00;;;;;;5126949;28;20091;-67
2021/01/14 10:02:50;;;;;;;8.40;5.15;;;3.70;70.70;;;;;;5126996;28;20035;-66
2021/01/14 10:05:17;;;;;;;4.68;2.80;;;3.60;69.80;;;;;;5126700;28;20023;-66
2021/01/14 10:07:51;;;;;;;4.68;2.90;;;3.60;70.30;;;;;;5126596;28;20376;-65
2021/01/14 10:10:17;;;;;;;5.47;2.97;;;3.70;70.30;;;;;;5127210;27;20160;-66
2021/01/14 10:12:44;;;;;;;5.13;3.15;;;3.70;70.50;;;;;;5130610;27;20080;-66
2021/01/14 10:15:13;;;;;;;5.32;2.78;;;3.70;70.50;;;;;;5131081;27;20411;-66
2021/01/14 10:17:40;;;;;;;4.57;2.97;;;3.80;69.40;;;;;;5130644;27;20441;-66
2021/01/14 10:20:14;;;;;;;4.45;2.38;;;3.80;68.80;;;;;;5130931;27;20031;-66
2021/01/14 10:22:46;;;;;;;3.75;2.20;;;3.70;69.60;;;;;;5130653;27;20060;-66
2021/01/14 10:25:13;;;;;;;3.88;2.22;;;3.80;69.10;;;;;;5130873;27;20465;-66
2021/01/14 10:27:39;;;;;;;6.20;2.50;;;3.80;69.20;;;;;;5130537;27;20835;-66
2021/01/14 10:30:23;;;;;;;;;;;3.80;69.80;;;;;;5112739;27;20026;-66
2021/01/14 10:32:49;;;;;;;56.33;28.42;;;3.80;69.40;;;;;;5130635;27;19930;-67
2021/01/14 10:35:27;;;;;;;;;;;3.80;69.10;;;;;;5131472;27;20019;-65
2021/01/14 10:38:05;;;;;;;5.47;2.03;;;3.90;69.80;;;;;;5112152;27;20288;-66
2021/01/14 10:40:56;;;;;;;4.75;2.08;;;3.90;69.10;;;;;;5130733;27;20125;-66
2021/01/14 10:43:35;;;;;;;6.40;3.60;;;4.00;68.30;;;;;;5130362;27;20164;-66
2021/01/14 10:46:01;;;;;;;5.30;3.17;;;4.10;68.10;;;;;;5130363;27;20019;-67
2021/01/14 10:48:37;;;;;;;;;;;4.00;68.00;;;;;;5131101;27;20035;-67
2021/01/14 10:51:02;;;;;;;3.88;1.63;;;4.00;68.50;;;;;;5130451;27;19907;-66
2021/01/14 10:53:32;;;;;;;;;;;4.10;68.10;;;;;;5130165;27;20034;-67
2021/01/14 10:56:11;;;;;;;4.75;2.38;;;4.00;68.70;;;;;;5129943;27;19928;-67
2021/01/14 10:58:40;;;;;;;4.32;1.42;;;4.20;68.00;;;;;;5130066;27;20087;-67
2021/01/14 11:01:16;;;;;;;6.68;3.30;;;4.30;67.20;;;;;;5130462;27;20026;-66
2021/01/14 11:03:41;;;;;;;5.47;2.25;;;4.20;67.40;;;;;;5129758;27;20035;-67
2021/01/14 11:06:07;;;;;;;;;;;4.10;66.90;;;;;;5130135;27;20031;-66
2021/01/14 11:08:46;;;;;;;5.05;2.72;;;4.00;67.10;;;;;;5130146;27;19960;-67
2021/01/14 11:11:15;;;;;;;7.30;3.83;;;3.80;66.10;;;;;;5111234;27;20394;-67
2021/01/14 11:13:49;;;;;;;7.15;3.45;;;3.90;67.70;;;;;;5129544;27;20023;-67
2021/01/14 11:16:23;;;;;;;5.45;2.72;;;4.10;66.70;;;;;;5130017;27;20048;-68
2021/01/14 11:18:49;;;;;;;4.65;2.20;;;4.30;64.70;;;;;;5129829;27;20168;-67
2021/01/14 11:21:17;;;;;;;7.45;3.10;;;4.30;64.30;;;;;;5128629;27;20783;-68
2021/01/14 11:23:43;;;;;;;4.45;2.42;;;4.20;66.00;;;;;;5128911;27;20042;-67
2021/01/14 11:26:15;;;;;;;3.45;1.83;;;4.40;65.20;;;;;;5110216;27;20409;-67
2021/01/14 11:28:41;;;;;;;8.95;3.28;;;4.40;65.10;;;;;;5129322;27;20039;-67
2021/01/14 11:31:16;;;;;;;;;;;4.50;64.80;;;;;;5130179;27;20396;-67
2021/01/14 11:33:43;;;;;;;6.65;3.38;;;4.60;63.40;;;;;;5129244;27;20116;-67
2021/01/14 11:36:09;;;;;;;6.22;3.00;;;4.30;64.30;;;;;;5129355;27;20098;-67
2021/01/14 11:38:35;;;;;;;7.05;3.30;;;4.20;65.10;;;;;;5129642;27;20023;-67
2021/01/14 11:41:01;;;;;;;;;;;4.10;65.70;;;;;;5129578;27;20031;-67
2021/01/14 11:43:27;;;;;;;5.60;2.72;;;4.00;65.30;;;;;;5129241;27;19985;-67
2021/01/14 11:45:53;;;;;;;6.75;3.53;;;3.80;66.40;;;;;;5110842;27;20502;-67
2021/01/14 11:48:19;;;;;;;;;;;3.70;66.50;;;;;;5129847;27;20035;-67
2021/01/14 11:50:45;;;;;;;5.40;2.85;;;3.70;67.30;;;;;;5128879;27;19908;-67
2021/01/14 11:53:10;;;;;;;;;;;3.60;67.40;;;;;;5129789;27;20271;-68
2021/01/14 11:55:36;;;;;;;2.97;1.42;;;3.60;67.60;;;;;;5128537;27;20015;-68
2021/01/14 11:58:02;;;;;;;;;;;3.50;67.50;;;;;;5129658;27;20038;-67
2021/01/14 12:00:28;;;;;;;3.00;1.27;;;3.40;68.80;;;;;;5128600;27;20278;-67
2021/01/14 12:02:53;;;;;;;;;;;3.30;69.80;;;;;;5110973;27;20503;-67
2021/01/14 12:05:19;;;;;;;3.72;2.17;;;3.30;70.80;;;;;;5128593;27;19907;-67
2021/01/14 12:07:44;;;;;;;;;;;3.20;71.30;;;;;;5129312;27;20046;-67
2021/01/14 12:10:10;;;;;;;4.15;2.30;;;3.10;71.80;;;;;;5128621;27;19923;-65
2021/01/14 12:12:36;;;;;;;2.88;1.75;;;3.10;72.10;;;;;;5128367;27;20051;-68
2021/01/14 12:15:04;;;;;;;;;;;3.10;71.70;;;;;;5129057;27;20135;-67
2021/01/14 12:17:30;;;;;;;5.20;2.03;;;3.00;72.20;;;;;;5128851;27;19950;-67
2021/01/14 12:19:56;;;;;;;;;;;3.00;72.40;;;;;;5129276;27;20111;-67
2021/01/14 12:22:21;;;;;;;3.85;2.00;;;3.10;72.70;;;;;;5128523;27;19976;-67
2021/01/14 12:24:47;;;;;;;;;;;3.10;72.70;;;;;;5129032;27;20512;-67
2021/01/14 12:27:12;;;;;;;2.80;1.58;;;3.10;72.60;;;;;;5109719;27;19926;-67
2021/01/14 12:29:38;;;;;;;3.13;1.70;;;3.30;72.30;;;;;;5128474;27;20035;-67
2021/01/14 12:32:04;;;;;;;;;;;3.40;71.70;;;;;;5128985;27;20111;-67
2021/01/14 12:34:30;;;;;;;10.57;5.55;;;3.60;71.10;;;;;;5127888;27;19907;-67
2021/01/14 12:36:56;;;;;;;14.07;7.70;;;3.70;70.00;;;;;;5128173;27;20031;-67
2021/01/14 12:39:22;;;;;;;;;;;3.80;68.80;;;;;;5128899;27;20015;-67
2021/01/14 12:41:48;;;;;;;10.80;5.50;;;3.80;67.70;;;;;;5127628;27;19907;-67
2021/01/14 12:44:13;;;;;;;;;;;3.80;67.00;;;;;;5128863;27;20037;-67
2021/01/14 12:46:41;;;;;;;21.45;10.52;;;3.80;67.50;;;;;;5109751;27;20084;-67
2021/01/14 12:49:08;;;;;;;41.33;14.90;;;3.80;67.70;;;;;;5128155;27;20019;-68
2021/01/14 12:51:35;;;;;;;16.38;5.93;;;3.90;68.20;;;;;;5128309;27;20114;-67
2021/01/14 12:54:01;;;;;;;10.73;4.93;;;4.00;67.90;;;;;;5127912;27;20016;-67
2021/01/14 12:56:27;;;;;;;8.35;4.00;;;4.10;67.50;;;;;;5127483;27;20534;-68
2021/01/14 12:58:53;;;;;;;;;;;4.20;66.80;;;;;;5128287;27;20105;-68
2021/01/14 13:01:32;;;;;;;13.73;8.02;;;4.20;65.40;;;;;;5128014;27;20010;-67
2021/01/14 13:04:00;;;;;;;16.48;9.57;;;4.20;64.50;;;;;;5127995;27;20023;-68
2021/01/14 13:06:27;;;;;;;12.52;7.50;;;4.20;65.40;;;;;;5127501;27;20484;-66
2021/01/14 13:08:54;;;;;;;11.88;6.72;;;4.30;65.30;;;;;;5127796;27;20049;-67
2021/01/14 13:11:20;;;;;;;12.15;6.68;;;4.40;65.30;;;;;;5108876;27;20024;-67
2021/01/14 13:13:46;;;;;;;14.55;8.18;;;4.40;62.80;;;;;;5108761;27;20023;-68
2021/01/14 13:16:11;;;;;;;;;;;4.40;62.50;;;;;;5128183;27;20761;-67
2021/01/14 13:18:37;;;;;;;7.53;4.20;;;4.30;61.30;;;;;;5127527;27;20355;-68
2021/01/14 13:21:03;;;;;;;;;;;4.20;62.10;;;;;;5127764;27;20027;-67